Cut Bank, MT

10:02 PM MDT on September 16, 2014 (GMT -0600)
Cut Bank Municipal | Change Station
CLOSE
Current Station
Airport
Location: Cut Bank,
Elevation: 3855 ft
Nearby Weather Stations

Elev 3855 ft 48.61 °N, 112.38 °W | Updated 19 minutes ago

Partly Cloudy
Partly Cloudy
63 °F
Feels Like 63 °F
N
9
Wind Variable Wind from NNW

Today
High -- | Low -- °F
--% Chance of Precip.
Yesterday
High -- | Low -- °F
Precip. -- in
7:07 AM 7:39 PM
Last Quarter, 39% visible
Pressure 29.92 in
Visibility 10.0 miles
Clouds Few 300 ft
Dew Point 41 °F
Humidity 45%
Rainfall 0.00 in
Snow Depth 1 in , 0 in , 0 in
UV 0 out of 12
Pollen 2.30 out of 12
Air Quality Not available.
Flu Activity Not available.
SPECI KCTB 170343Z AUTO 33008KT 10SM FEW003 17/05 A2992 RMK AO2 T01720050

More Conditions Fewer Conditions

Pressure 29.92 in
Visibility 10.0 miles
Clouds Few 300 ft
Dew Point 41 °F
Humidity 45%
Rainfall 0.00 in
Snow Depth 1 in , 0 in , 0 in
UV 0 out of 12
Pollen 2.30 out of 12
Air Quality Not available.
Flu Activity Not available.
SPECI KCTB 170343Z AUTO 33008KT 10SM FEW003 17/05 A2992 RMK AO2 T01720050

More Conditions Fewer Conditions

10-Day Weather Forecast

Almanac

Astronomy

Sep. 16, 2014 Rise Set
Actual Time 7:07 AM MDT 7:39 PM MDT
Civil Twilight 6:35 AM MDT 8:11 PM MDT
Nautical Twilight 5:58 AM MDT 8:48 PM MDT
Astronomical Twilight 5:19 AM MDT 9:27 PM MDT
Moon No Moon Rise 3:27 PM MDT (9/16)
Length of Visible Light 13h 35m
Length of Day
12h 32m
Tomorrow will be 3m 31s shorter.
Last Quarter, 39% of the Moon is Illuminated
Sep 17
Last Quarter
Sep 24
New
Oct 1
First Quarter
Oct 8
Full
Oct 15
Last Quarter

Today's Extremes

State Highs State Lows

Community

WunderPhotos

Upload Photos

1,753,965 photos uploaded!

Nearby

Snow Depth

Station Depth Elevation
Wood Creek 1 in 5960 ft
Northeast Entrance 0 in 7350 ft
Flattop Mountain 0 in 6300 ft
Stuart Mountain 0 in 7400 ft
Kraft Creek 0 in 4750 ft

Earthquake Activity

City Distance Mag. Time & Date
No recent earthquake activity has been reported nearby.
Minimum magnitude displayed is 2.5.

Coastal Water Temperatures

Place Temperature
No Stations Reporting

Nearby Weather Stations